Time;durP1;ratioP1;P1;durP2;ratioP2;P2;SDS_P1;SDS_P2;PMS_P1;PMS_P2;Temp;Humidity;BMP_temperature;BMP_pressure;BME280_temperature;BME280_humidity;BME280_pressure;Samples;Min_cycle;Max_cycle;Signal;HPM_P1;HPM_P2
2022/02/17 00:00:36;;;;;;;1.92;0.45;;;;;;;11.18;100.00;97411.25;4948021;28;20136;-71
2022/02/17 00:03:01;;;;;;;6.38;1.40;;;;;;;11.11;100.00;97414.19;4962551;28;20098;-71
2022/02/17 00:05:27;;;;;;;5.45;0.52;;;;;;;11.25;100.00;97397.53;4942391;28;20052;-71
2022/02/17 00:07:54;;;;;;;2.03;0.60;;;;;;;11.19;100.00;97415.47;4946187;29;20046;-73
2022/02/17 00:10:23;;;;;;;2.10;0.60;;;;;;;11.12;100.00;97423.75;4950283;28;20043;-72
2022/02/17 00:12:49;;;;;;;5.85;0.73;;;;;;;11.12;100.00;97434.53;4954602;28;20514;-71
2022/02/17 00:15:14;;;;;;;4.18;0.95;;;;;;;11.15;100.00;97439.78;4945463;28;20095;-71
2022/02/17 00:17:40;;;;;;;1.75;0.52;;;;;;;11.25;100.00;97446.00;4940140;29;20026;-72
2022/02/17 00:20:06;;;;;;;5.05;0.47;;;;;;;11.17;100.00;97450.16;4951103;28;20049;-71
2022/02/17 00:22:31;;;;;;;1.13;0.60;;;;;;;11.15;100.00;97439.78;4952678;28;20438;-71
2022/02/17 00:24:57;;;;;;;2.05;0.40;;;;;;;11.08;100.00;97442.75;4952961;28;20046;-71
2022/02/17 00:27:22;;;;;;;1.42;0.55;;;;;;;11.08;100.00;97450.81;4951664;28;20038;-72
2022/02/17 00:29:47;;;;;;;0.63;0.30;;;;;;;11.11;100.00;97470.75;4967268;28;20098;-71
2022/02/17 00:32:14;;;;;;;2.50;1.15;;;;;;;11.01;100.00;97458.38;4953736;28;20043;-72
2022/02/17 00:34:40;;;;;;;5.35;0.50;;;;;;;11.03;100.00;97466.78;4949785;28;20097;-73
2022/02/17 00:37:05;;;;;;;7.95;1.55;;;;;;;10.94;99.99;97475.53;4951336;29;20039;-71
2022/02/17 00:39:32;;;;;;;5.68;0.77;;;;;;;11.01;98.60;97469.16;4951917;28;20138;-71
2022/02/17 00:41:58;;;;;;;4.40;0.80;;;;;;;11.01;98.09;97467.22;4944596;28;20829;-71
2022/02/17 00:44:24;;;;;;;5.13;0.93;;;;;;;11.01;97.15;97485.31;4949369;28;20038;-71
2022/02/17 00:46:51;;;;;;;7.15;1.38;;;;;;;10.93;96.14;97470.56;4950594;29;20086;-73
2022/02/17 00:49:17;;;;;;;7.05;1.27;;;;;;;10.95;96.47;97482.44;4950490;28;20069;-71
2022/02/17 00:51:42;;;;;;;0.30;0.30;;;;;;;10.93;95.89;97467.88;4948357;28;20055;-71
2022/02/17 00:54:08;;;;;;;2.33;1.45;;;;;;;10.93;95.85;97479.41;4967425;28;20039;-72
2022/02/17 00:56:39;;;;;;;;;;;;;;;10.91;94.84;97489.88;4966822;28;20097;-72
2022/02/17 00:59:06;;;;;;;3.70;0.50;;;;;;;10.92;93.76;97487.94;4951010;28;19918;-71
2022/02/17 01:01:32;;;;;;;5.63;1.08;;;;;;;10.79;94.08;97485.25;4958563;28;20034;-71
2022/02/17 01:03:58;;;;;;;1.40;0.73;;;;;;;10.92;93.11;97479.84;4950478;28;20039;-72
2022/02/17 01:06:23;;;;;;;2.95;0.88;;;;;;;10.84;91.87;97471.22;4965500;28;20020;-72
2022/02/17 01:08:49;;;;;;;2.08;0.70;;;;;;;10.90;92.30;97453.34;4967088;28;20189;-71
2022/02/17 01:11:20;;;;;;;;;;;;;;;10.87;90.59;97475.75;4968254;28;20035;-72
2022/02/17 01:13:46;;;;;;;1.30;0.60;;;;;;;10.85;90.59;97462.00;4958210;28;20379;-72
2022/02/17 01:16:11;;;;;;;2.50;0.98;;;;;;;10.85;91.23;97478.91;4963640;28;20508;-70
2022/02/17 01:18:37;;;;;;;4.65;0.57;;;;;;;10.90;89.94;97470.25;4949697;28;20069;-71
2022/02/17 01:21:05;;;;;;;1.17;0.52;;;;;;;10.88;90.00;97461.88;4966941;28;20035;-70
2022/02/17 01:23:31;;;;;;;6.97;1.00;;;;;;;10.99;89.96;97483.06;4953458;28;20035;-71
2022/02/17 01:25:57;;;;;;;0.82;0.60;;;;;;;11.01;89.72;97475.31;4960776;28;20039;-71
2022/02/17 01:28:22;;;;;;;2.00;0.82;;;;;;;10.90;89.80;97459.50;4950932;28;20190;-72
2022/02/17 01:30:51;;;;;;;3.33;1.10;;;;;;;10.88;89.92;97461.88;4951399;28;20046;-71
2022/02/17 01:33:19;;;;;;;1.30;0.47;;;;;;;10.95;89.92;97460.13;4951323;28;20085;-71
2022/02/17 01:35:54;;;;;;;2.78;0.47;;;;;;;10.94;90.71;97445.19;4956377;28;20023;-71
2022/02/17 01:38:21;;;;;;;1.27;0.40;;;;;;;10.98;91.45;97451.16;4961991;28;20039;-71
2022/02/17 01:40:47;;;;;;;7.10;0.73;;;;;;;10.79;91.07;97448.34;4965301;28;20118;-71
2022/02/17 01:43:16;;;;;;;6.00;0.65;;;;;;;10.78;91.54;97436.03;4953770;28;20587;-70
2022/02/17 01:45:43;;;;;;;2.88;0.40;;;;;;;10.79;90.29;97432.19;4950955;28;20045;-71
2022/02/17 01:48:09;;;;;;;4.80;0.70;;;;;;;10.82;89.81;97400.94;4960868;28;20038;-71
2022/02/17 01:50:40;;;;;;;1.10;0.52;;;;;;;10.81;89.65;97426.34;4949870;29;20046;-71
2022/02/17 01:53:08;;;;;;;6.57;1.65;;;;;;;10.84;87.78;97444.31;4950333;28;20433;-71
2022/02/17 01:55:37;;;;;;;6.10;0.68;;;;;;;10.89;87.42;97439.16;4940813;29;20030;-71
2022/02/17 01:58:02;;;;;;;1.55;0.55;;;;;;;10.85;86.01;97433.13;4965507;28;20043;-71
2022/02/17 02:00:28;;;;;;;2.85;1.60;;;;;;;10.73;86.61;97430.47;4963277;28;20042;-73
2022/02/17 02:02:53;;;;;;;6.07;0.82;;;;;;;10.79;86.46;97413.34;4951898;29;20134;-71
2022/02/17 02:05:39;;;;;;;1.77;1.58;;;;;;;10.84;85.15;97412.78;4935893;28;20032;-71
2022/02/17 02:08:07;;;;;;;5.43;0.70;;;;;;;10.86;84.06;97401.56;4947925;28;20515;-72
2022/02/17 02:10:33;;;;;;;1.25;0.75;;;;;;;10.84;83.79;97415.47;4951261;28;20114;-71
2022/02/17 02:13:00;;;;;;;1.90;0.43;;;;;;;10.92;84.32;97393.72;4942110;29;20146;-71
2022/02/17 02:15:53;;;;;;;1.73;0.38;;;;;;;10.86;82.18;97401.56;4943050;28;20050;-72
2022/02/17 02:18:22;;;;;;;5.88;0.50;;;;;;;10.83;83.10;97362.06;4948430;28;20374;-72
2022/02/17 02:20:52;;;;;;;0.95;0.38;;;;;;;10.91;81.78;97406.41;4951754;28;20034;-71
2022/02/17 02:23:21;;;;;;;2.97;0.52;;;;;;;10.79;80.87;97407.19;4962043;28;20039;-71
2022/02/17 02:25:53;;;;;;;4.13;0.85;;;;;;;10.76;79.83;97424.22;4950662;28;20043;-71
2022/02/17 02:28:28;;;;;;;2.45;0.50;;;;;;;10.78;78.96;97416.47;4960441;28;20369;-70
2022/02/17 02:30:56;;;;;;;2.75;0.70;;;;;;;10.81;78.44;97412.91;4965605;28;20046;-71
2022/02/17 02:33:24;;;;;;;0.40;0.40;;;;;;;10.71;77.65;97433.59;4946352;28;20024;-71
2022/02/17 02:35:51;;;;;;;1.85;0.30;;;;;;;10.67;77.19;97457.19;4953752;28;20034;-71
2022/02/17 02:38:17;;;;;;;3.05;0.32;;;;;;;10.73;76.84;97425.84;4943209;28;20058;-72
2022/02/17 02:40:44;;;;;;;4.65;0.35;;;;;;;10.65;77.44;97439.97;4978558;23;20072;-70
2022/02/17 02:43:20;;;;;;;7.38;1.20;;;;;;;10.66;77.51;97436.09;4940387;29;20043;-70
2022/02/17 02:45:46;;;;;;;7.05;0.45;;;;;;;10.62;78.01;97428.13;4935590;28;20041;-69
2022/02/17 02:48:15;;;;;;;1.98;0.50;;;;;;;10.63;78.12;97416.19;4911013;29;20467;-69
2022/02/17 02:50:42;;;;;;;5.28;0.47;;;;;;;10.64;77.94;97447.31;4942589;28;20118;-69
2022/02/17 02:53:14;;;;;;;5.40;0.35;;;;;;;10.71;78.24;97443.59;4907096;29;20064;-70
2022/02/17 02:55:40;;;;;;;4.45;0.80;;;;;;;10.63;79.00;97456.53;4906207;29;20024;-70
2022/02/17 02:58:06;;;;;;;3.75;0.85;;;;;;;10.61;79.76;97458.91;4912273;29;20191;-69
2022/02/17 03:00:31;;;;;;;1.17;0.50;;;;;;;10.63;78.70;97458.47;4923680;29;20115;-69
2022/02/17 03:02:57;;;;;;;0.55;0.40;;;;;;;10.50;78.83;97460.44;4932071;29;20032;-68
2022/02/17 03:05:22;;;;;;;0.82;0.30;;;;;;;10.41;78.77;97450.34;4938798;29;20127;-69
2022/02/17 03:07:48;;;;;;;3.88;0.68;;;;;;;10.42;78.92;97477.97;4909831;29;20136;-69
2022/02/17 03:10:14;;;;;;;9.70;0.98;;;;;;;10.31;78.64;97456.81;4930532;28;20096;-70
2022/02/17 03:12:39;;;;;;;8.10;1.10;;;;;;;10.36;79.69;97477.78;4907952;29;20047;-69
2022/02/17 03:15:05;;;;;;;3.67;0.57;;;;;;;10.44;80.69;97467.53;4905333;29;20500;-69
2022/02/17 03:17:31;;;;;;;1.40;0.55;;;;;;;10.38;79.77;97491.53;4942968;29;20091;-69
2022/02/17 03:19:56;;;;;;;3.58;0.57;;;;;;;10.36;78.93;97479.69;4918260;29;20041;-69
2022/02/17 03:22:22;;;;;;;1.70;0.70;;;;;;;10.39;79.62;97476.91;4925172;29;20032;-69
2022/02/17 03:24:49;;;;;;;2.03;0.82;;;;;;;10.29;79.35;97467.25;4916475;29;20040;-69
2022/02/17 03:27:15;;;;;;;6.03;0.73;;;;;;;10.30;79.13;97471.41;4922035;29;20024;-69
2022/02/17 03:29:42;;;;;;;0.70;0.32;;;;;;;10.29;77.72;97451.09;4923819;29;20068;-69
2022/02/17 03:32:08;;;;;;;2.20;0.40;;;;;;;10.27;78.56;97484.97;4907591;29;20040;-69
2022/02/17 03:34:34;;;;;;;4.75;0.52;;;;;;;10.20;79.52;97493.28;4922399;29;20059;-70
2022/02/17 03:37:00;;;;;;;0.60;0.30;;;;;;;10.13;80.87;97491.53;4909533;29;20029;-70
2022/02/17 03:39:26;;;;;;;24.02;1.70;;;;;;;10.17;80.54;97476.06;4917414;29;20036;-70
2022/02/17 03:42:02;;;;;;;3.25;0.82;;;;;;;10.15;81.19;97499.94;4923650;29;20036;-70
2022/02/17 03:44:30;;;;;;;1.40;1.02;;;;;;;10.17;80.27;97473.38;4944130;29;20142;-69
2022/02/17 03:47:06;;;;;;;2.20;1.13;;;;;;;10.18;80.44;97491.00;4917859;29;20377;-69
2022/02/17 03:49:54;;;;;;;3.28;0.65;;;;;;;10.06;80.73;97486.34;4905707;29;20123;-69
2022/02/17 03:52:20;;;;;;;3.30;1.60;;;;;;;10.12;81.35;97502.72;4912930;29;20517;-69
2022/02/17 03:55:06;;;;;;;0.73;0.45;;;;;;;10.15;80.07;97497.25;4906082;29;20048;-69
2022/02/17 03:57:31;;;;;;;3.65;0.52;;;;;;;10.16;80.69;97520.28;4939818;29;20039;-70
2022/02/17 04:00:04;;;;;;;2.47;0.63;;;;;;;10.20;79.54;97510.13;4939217;29;20028;-70
2022/02/17 04:02:31;;;;;;;2.83;1.23;;;;;;;10.17;79.90;97513.69;4900116;29;20509;-69
2022/02/17 04:04:58;;;;;;;3.42;0.30;;;;;;;10.05;78.70;97492.91;4912882;29;20512;-69
2022/02/17 04:07:23;;;;;;;1.98;0.80;;;;;;;10.14;79.50;97503.81;4913154;29;20115;-69
2022/02/17 04:09:49;;;;;;;4.68;1.13;;;;;;;10.14;79.40;97500.38;4945767;29;20063;-70
2022/02/17 04:12:16;;;;;;;0.73;0.55;;;;;;;10.04;79.53;97508.25;4941801;29;20096;-70
2022/02/17 04:14:43;;;;;;;2.60;0.60;;;;;;;10.02;79.10;97515.28;4944367;28;20046;-69
2022/02/17 04:17:08;;;;;;;3.83;0.52;;;;;;;9.98;79.53;97526.13;4914871;29;20404;-69
2022/02/17 04:19:53;;;;;;;8.13;0.43;;;;;;;9.97;80.70;97510.41;4944384;28;21227;-69
2022/02/17 04:22:39;;;;;;;5.35;1.25;;;;;;;10.00;80.16;97496.13;4905696;29;20079;-69
2022/02/17 04:25:16;;;;;;;4.53;1.52;;;;;;;9.94;79.92;97519.34;4926721;29;20791;-69
2022/02/17 04:27:43;;;;;;;2.10;0.60;;;;;;;9.99;79.48;97518.78;4928096;29;20044;-70
2022/02/17 04:30:09;;;;;;;2.05;1.50;;;;;;;9.84;79.66;97531.13;4927127;29;20036;-70
2022/02/17 04:32:35;;;;;;;2.47;0.95;;;;;;;9.83;80.63;97532.31;4919204;29;20040;-71
2022/02/17 04:35:01;;;;;;;8.43;0.85;;;;;;;9.93;81.43;97542.00;4924221;29;20445;-70
2022/02/17 04:37:27;;;;;;;4.80;0.98;;;;;;;9.86;81.40;97534.91;4926708;29;20050;-70
2022/02/17 04:39:52;;;;;;;0.73;0.28;;;;;;;9.95;82.11;97545.03;4926582;29;20505;-69
2022/02/17 04:42:19;;;;;;;1.27;0.77;;;;;;;9.90;83.04;97540.19;4941963;28;20127;-70
2022/02/17 04:44:50;;;;;;;1.77;0.75;;;;;;;9.83;85.50;97543.81;4929897;29;20028;-70
2022/02/17 04:47:17;;;;;;;1.13;1.02;;;;;;;9.80;85.16;97549.28;4943457;28;20094;-69
2022/02/17 04:49:43;;;;;;;3.28;0.73;;;;;;;9.78;84.12;97548.97;4943213;28;20481;-69
2022/02/17 04:52:09;;;;;;;0.40;0.40;;;;;;;9.66;83.43;97545.06;4946135;29;20036;-69
2022/02/17 04:54:36;;;;;;;1.55;0.80;;;;;;;9.60;83.31;97543.31;4929879;29;20032;-69
2022/02/17 04:57:04;;;;;;;3.63;1.02;;;;;;;9.54;83.55;97548.44;4927730;29;20504;-70
2022/02/17 04:59:35;;;;;;;0.55;0.28;;;;;;;9.54;83.68;97532.31;4937389;29;20040;-69
2022/02/17 05:02:00;;;;;;;2.38;0.80;;;;;;;9.49;83.55;97518.66;4902711;29;20036;-69
2022/02/17 05:04:36;;;;;;;1.30;0.65;;;;;;;9.51;83.10;97508.25;4927540;29;20041;-69
2022/02/17 05:07:04;;;;;;;0.88;0.55;;;;;;;9.53;83.43;97519.31;4911275;29;20032;-70
2022/02/17 05:09:30;;;;;;;2.65;0.47;;;;;;;9.51;85.15;97546.59;4931088;29;20032;-69
2022/02/17 05:11:56;;;;;;;2.35;1.00;;;;;;;9.47;85.80;97539.81;4929158;29;20028;-69
2022/02/17 05:14:23;;;;;;;0.70;0.70;;;;;;;9.40;86.35;97538.09;4907021;29;20096;-70
2022/02/17 05:16:49;;;;;;;8.00;0.63;;;;;;;9.36;85.65;97523.22;4939100;28;20505;-70
2022/02/17 05:19:15;;;;;;;3.88;0.50;;;;;;;9.38;84.84;97548.50;4943591;29;20082;-69
2022/02/17 05:22:06;;;;;;;1.58;0.65;;;;;;;9.26;85.55;97543.06;4927095;29;20396;-71
2022/02/17 05:24:57;;;;;;;2.08;0.63;;;;;;;9.35;86.19;97543.22;4930736;28;20028;-69
2022/02/17 05:27:44;;;;;;;3.13;0.40;;;;;;;9.33;86.61;97545.56;4920022;29;20075;-70
2022/02/17 05:30:28;;;;;;;1.58;0.45;;;;;;;9.16;87.60;97542.16;4908984;29;20956;-70
2022/02/17 05:33:33;;;;;;;0.40;0.40;;;;;;;9.10;87.88;97533.09;4912151;29;20470;-69
2022/02/17 05:36:06;;;;;;;3.22;1.00;;;;;;;9.08;88.88;97530.06;4888648;29;20060;-70
2022/02/17 05:39:01;;;;;;;3.13;2.03;;;;;;;9.10;87.98;97523.13;4889201;29;20402;-70
2022/02/17 05:41:50;;;;;;;1.58;0.77;;;;;;;9.06;88.00;97522.44;4879447;29;20041;-70
2022/02/17 05:44:16;;;;;;;0.77;0.40;;;;;;;9.12;88.86;97530.00;4887926;29;20040;-70
2022/02/17 05:46:41;;;;;;;0.47;0.28;;;;;;;9.12;87.73;97562.22;4882585;29;20053;-69
2022/02/17 05:49:07;;;;;;;2.38;0.88;;;;;;;9.05;88.39;97552.41;4894496;29;20051;-70
2022/02/17 05:51:32;;;;;;;3.90;0.52;;;;;;;9.09;90.52;97535.03;4885564;29;20113;-70
2022/02/17 05:53:58;;;;;;;3.80;1.20;;;;;;;9.06;91.27;97543.91;4895234;29;20128;-69
2022/02/17 05:56:23;;;;;;;20.13;1.48;;;;;;;8.95;93.35;97556.09;4893278;29;20480;-69
2022/02/17 05:58:49;;;;;;;7.93;0.75;;;;;;;8.85;94.24;97555.16;4881064;29;20036;-69
2022/02/17 06:01:14;;;;;;;6.18;1.02;;;;;;;8.73;97.13;97550.47;4891158;29;20387;-69
2022/02/17 06:03:39;;;;;;;2.35;0.60;;;;;;;8.68;98.10;97550.22;4891078;29;20040;-68
2022/02/17 06:06:05;;;;;;;2.15;0.68;;;;;;;8.49;100.00;97581.28;4896080;29;20119;-69
2022/02/17 06:08:30;;;;;;;5.18;0.80;;;;;;;8.42;100.00;97578.75;4892160;29;20643;-69
2022/02/17 06:10:56;;;;;;;4.50;0.40;;;;;;;8.39;100.00;97582.28;4894955;29;20568;-68
2022/02/17 06:13:21;;;;;;;0.30;0.30;;;;;;;8.40;100.00;97602.53;4909145;29;20051;-69
2022/02/17 06:15:48;;;;;;;0.13;0.13;;;;;;;8.42;100.00;97605.56;4910982;29;20030;-69
2022/02/17 06:18:13;;;;;;;9.60;1.23;;;;;;;8.38;100.00;97599.50;4910086;29;20048;-69
2022/02/17 06:20:40;;;;;;;2.05;0.77;;;;;;;8.41;100.00;97606.75;4907964;29;20531;-69
2022/02/17 06:23:06;;;;;;;4.30;1.25;;;;;;;8.44;100.00;97621.97;4910769;29;20040;-69
2022/02/17 06:25:31;;;;;;;1.83;0.65;;;;;;;8.47;100.00;97631.13;4910435;29;20035;-69
2022/02/17 06:28:02;;;;;;;5.57;0.60;;;;;;;8.38;100.00;97642.41;4910312;29;20821;-69
2022/02/17 06:30:27;;;;;;;0.30;0.30;;;;;;;8.32;100.00;97636.03;4941627;28;20095;-70
2022/02/17 06:32:56;;;;;;;1.80;0.70;;;;;;;8.30;100.00;97649.09;4916194;29;20043;-70
2022/02/17 06:35:25;;;;;;;7.38;1.48;;;;;;;8.16;100.00;97652.03;4912685;29;20493;-70
2022/02/17 06:37:52;;;;;;;0.47;0.40;;;;;;;8.18;100.00;97657.72;4914640;29;20517;-70
2022/02/17 06:40:19;;;;;;;6.57;0.55;;;;;;;8.21;100.00;97689.81;4914557;29;20043;-70
2022/02/17 06:42:44;;;;;;;3.47;0.47;;;;;;;8.13;100.00;97661.63;4914345;29;20068;-69
2022/02/17 06:45:11;;;;;;;8.05;1.02;;;;;;;8.08;100.00;97683.56;4907836;29;20072;-70
2022/02/17 06:47:36;;;;;;;4.15;1.02;;;;;;;8.16;100.00;97689.53;4911256;29;20477;-70
2022/02/17 06:50:03;;;;;;;0.20;0.20;;;;;;;8.00;100.00;97705.53;4913527;29;20106;-69
2022/02/17 06:52:29;;;;;;;2.35;1.17;;;;;;;8.08;100.00;97720.31;4914036;29;20042;-69
2022/02/17 06:54:54;;;;;;;4.10;0.90;;;;;;;8.15;100.00;97709.47;4908369;29;20036;-69
2022/02/17 06:57:23;;;;;;;5.03;0.77;;;;;;;8.09;100.00;97700.41;4913019;29;20512;-70
2022/02/17 06:59:50;;;;;;;4.38;0.65;;;;;;;8.08;100.00;97720.31;4913775;29;20044;-69
2022/02/17 07:02:23;;;;;;;1.85;0.60;;;;;;;7.98;100.00;97737.34;4910838;29;20119;-69
2022/02/17 07:04:49;;;;;;;6.47;0.82;;;;;;;7.98;100.00;97740.00;4903987;29;20061;-69
2022/02/17 07:07:15;;;;;;;1.80;0.70;;;;;;;8.05;100.00;97739.91;4897713;29;20032;-70
2022/02/17 07:09:40;;;;;;;1.65;0.75;;;;;;;8.01;100.00;97733.84;4910987;29;20137;-69
2022/02/17 07:12:06;;;;;;;1.23;0.60;;;;;;;8.14;100.00;97759.63;4907285;29;20064;-70
2022/02/17 07:14:32;;;;;;;3.42;0.65;;;;;;;8.06;100.00;97765.53;4941035;29;20040;-69
2022/02/17 07:16:59;;;;;;;12.63;0.65;;;;;;;8.08;100.00;97771.22;4911554;29;20056;-70
2022/02/17 07:19:25;;;;;;;2.10;1.05;;;;;;;8.12;100.00;97783.41;4910040;29;20135;-70
2022/02/17 07:21:50;;;;;;;6.72;0.75;;;;;;;8.12;100.00;97788.00;4928048;29;20107;-69
2022/02/17 07:24:20;;;;;;;3.03;0.75;;;;;;;8.12;100.00;97793.38;4931242;29;20061;-70
2022/02/17 07:26:46;;;;;;;3.45;0.63;;;;;;;8.06;100.00;97824.47;4912885;29;20028;-69
2022/02/17 07:29:13;;;;;;;1.80;1.23;;;;;;;8.08;100.00;97827.50;4914375;29;20029;-69
2022/02/17 07:31:39;;;;;;;1.65;0.50;;;;;;;8.10;100.00;97825.19;4909631;29;20045;-69
2022/02/17 07:34:05;;;;;;;2.28;0.40;;;;;;;8.10;100.00;97843.94;4906915;29;20426;-70
2022/02/17 07:36:30;;;;;;;4.90;0.52;;;;;;;8.09;100.00;97847.78;4913945;29;20040;-69
2022/02/17 07:38:56;;;;;;;3.38;0.77;;;;;;;8.16;100.00;97864.50;4938548;28;20036;-69
2022/02/17 07:41:22;;;;;;;3.00;0.85;;;;;;;8.17;100.00;97879.41;4910012;29;20033;-69
2022/02/17 07:43:47;;;;;;;3.20;0.80;;;;;;;8.06;100.00;97876.16;4916569;29;20047;-70
2022/02/17 07:46:13;;;;;;;1.63;0.50;;;;;;;8.04;100.00;97883.84;4925767;29;20028;-69
2022/02/17 07:48:40;;;;;;;1.77;0.40;;;;;;;7.86;100.00;97886.00;4946674;29;20040;-69
2022/02/17 07:51:06;;;;;;;1.25;0.60;;;;;;;8.03;100.00;97908.38;4912444;29;20044;-69
2022/02/17 07:53:32;;;;;;;2.53;0.38;;;;;;;8.08;100.00;97948.88;4912301;29;20032;-69
2022/02/17 07:55:59;;;;;;;2.13;0.22;;;;;;;7.97;100.00;97947.50;4913748;29;20378;-68
2022/02/17 07:58:25;;;;;;;0.20;0.20;;;;;;;7.89;100.00;97956.78;4912482;29;20050;-68
2022/02/17 08:00:51;;;;;;;7.30;0.43;;;;;;;7.90;100.00;97952.94;4909433;29;20031;-68
2022/02/17 08:03:17;;;;;;;1.80;0.75;;;;;;;7.83;100.00;97943.09;4909275;29;20556;-68
2022/02/17 08:05:42;;;;;;;10.60;0.52;;;;;;;7.84;100.00;97971.38;4906361;29;20044;-68
2022/02/17 08:08:10;;;;;;;3.90;0.50;;;;;;;7.76;100.00;97964.59;4941168;28;20099;-68
2022/02/17 08:10:36;;;;;;;1.40;0.57;;;;;;;7.85;100.00;97982.84;4909508;29;20035;-69
2022/02/17 08:13:03;;;;;;;15.60;0.85;;;;;;;7.82;100.00;97999.75;4912856;29;20592;-68
2022/02/17 08:15:29;;;;;;;2.40;0.40;;;;;;;7.84;100.00;98002.78;4912114;29;20071;-68
2022/02/17 08:17:54;;;;;;;4.30;0.45;;;;;;;7.85;100.00;98020.38;4912388;29;20158;-68
2022/02/17 08:20:19;;;;;;;1.33;0.45;;;;;;;7.92;100.00;98022.94;4928280;29;20095;-69
2022/02/17 08:22:50;;;;;;;1.17;0.38;;;;;;;7.92;100.00;98050.50;4911391;29;20060;-68
2022/02/17 08:25:16;;;;;;;2.05;0.60;;;;;;;7.90;100.00;98057.41;4926429;29;20043;-69
2022/02/17 08:27:41;;;;;;;1.77;0.43;;;;;;;7.91;100.00;98062.41;4914264;29;20048;-68
2022/02/17 08:30:07;;;;;;;0.40;0.40;;;;;;;7.94;100.00;98074.22;4941827;29;20119;-69
2022/02/17 08:32:37;;;;;;;5.63;0.38;;;;;;;7.93;100.00;98062.75;4916676;29;20052;-69
2022/02/17 08:35:04;;;;;;;1.10;0.30;;;;;;;8.02;100.00;98089.06;4904797;29;20048;-69
2022/02/17 08:37:30;;;;;;;0.32;0.28;;;;;;;8.02;100.00;98072.97;4915008;29;20087;-69
2022/02/17 08:39:56;;;;;;;0.30;0.30;;;;;;;8.03;100.00;98091.31;4940004;23;20016;-59
2022/02/17 08:42:22;;;;;;;3.40;0.98;;;;;;;7.98;100.00;98099.06;4965256;28;20035;-61
2022/02/17 08:44:47;;;;;;;2.72;0.47;;;;;;;7.90;100.00;98114.44;4964044;28;20097;-62
2022/02/17 08:47:15;;;;;;;0.25;0.25;;;;;;;7.80;100.00;98133.31;4965328;28;20395;-62
2022/02/17 08:49:41;;;;;;;3.00;0.52;;;;;;;7.82;100.00;98145.16;4968316;28;20460;-61
2022/02/17 08:52:07;;;;;;;3.92;0.73;;;;;;;7.88;100.00;98143.56;4967706;28;20037;-63
2022/02/17 08:54:33;;;;;;;0.43;0.43;;;;;;;7.87;100.00;98166.16;4969820;28;20478;-63
2022/02/17 08:56:58;;;;;;;1.98;1.13;;;;;;;7.87;100.00;98173.44;4967142;28;20062;-62
2022/02/17 08:59:24;;;;;;;3.22;0.28;;;;;;;7.87;100.00;98174.19;4969024;28;20038;-59
2022/02/17 09:01:51;;;;;;;12.50;0.70;;;;;;;7.91;100.00;98174.16;4968039;28;20097;-63
2022/02/17 09:04:17;;;;;;;0.68;0.57;;;;;;;7.95;100.00;98186.38;4965487;28;20102;-62
2022/02/17 09:06:42;;;;;;;4.97;0.63;;;;;;;7.92;100.00;98181.78;4965833;28;20050;-59
2022/02/17 09:09:08;;;;;;;4.97;0.68;;;;;;;7.93;100.00;98214.72;4966501;28;20490;-62
2022/02/17 09:11:34;;;;;;;0.77;0.30;;;;;;;7.99;100.00;98219.22;4965014;28;20078;-62
2022/02/17 09:13:59;;;;;;;4.68;0.63;;;;;;;7.96;100.00;98228.06;4959316;28;20045;-62
2022/02/17 09:16:25;;;;;;;2.47;0.52;;;;;;;7.84;100.00;98246.56;4963059;28;20030;-61
2022/02/17 09:18:50;;;;;;;1.88;0.90;;;;;;;7.87;100.00;98249.22;4959533;28;20030;-62
2022/02/17 09:21:16;;;;;;;2.17;0.82;;;;;;;7.79;100.00;98249.66;4961180;28;20041;-62
2022/02/17 09:23:42;;;;;;;1.75;0.50;;;;;;;7.88;100.00;98272.16;4966482;28;20076;-62
2022/02/17 09:26:08;;;;;;;1.13;0.38;;;;;;;7.91;100.00;98278.66;4960356;28;20039;-62
2022/02/17 09:28:35;;;;;;;2.13;1.08;;;;;;;7.93;100.00;98282.47;4975561;28;20046;-63
2022/02/17 09:31:00;;;;;;;0.73;0.28;;;;;;;7.87;100.00;98297.44;4965288;28;20498;-63
2022/02/17 09:33:25;;;;;;;8.05;1.23;;;;;;;7.80;100.00;98310.13;4964397;28;20069;-62
2022/02/17 09:35:53;;;;;;;1.13;0.28;;;;;;;7.82;100.00;98339.97;4970054;28;20047;-63
2022/02/17 09:38:19;;;;;;;0.35;0.17;;;;;;;7.78;100.00;98337.28;4964841;28;20031;-64
2022/02/17 09:40:46;;;;;;;3.03;0.40;;;;;;;7.79;100.00;98338.06;4976406;28;20492;-62
2022/02/17 09:43:12;;;;;;;1.65;0.38;;;;;;;7.83;100.00;98350.28;4962282;28;20039;-58
2022/02/17 09:45:50;;;;;;;3.80;0.40;;;;;;;7.89;100.00;98370.16;4961275;28;20027;-59
2022/02/17 09:48:17;;;;;;;0.40;0.22;;;;;;;7.86;100.00;98376.28;4963627;28;20442;-62
2022/02/17 09:50:43;;;;;;;0.17;0.17;;;;;;;7.76;100.00;98387.81;4972335;28;20051;-61
2022/02/17 09:53:09;;;;;;;0.10;0.10;;;;;;;7.72;100.00;98397.81;4960058;28;20030;-61
2022/02/17 09:55:35;;;;;;;3.30;0.65;;;;;;;7.72;100.00;98411.19;4957311;28;20411;-62
2022/02/17 09:58:01;;;;;;;2.17;0.93;;;;;;;7.76;100.00;98411.19;4963459;28;20122;-60
2022/02/17 10:00:33;;;;;;;0.28;0.28;;;;;;;7.80;100.00;98412.66;5046790;28;20484;-57
2022/02/17 10:03:25;;;;;;;3.58;0.70;;;;;;;7.74;100.00;98418.84;5040987;28;20077;-55
2022/02/17 10:06:06;;;;;;;1.92;0.95;;;;;;;7.77;100.00;98420.72;5046127;28;20029;-60
2022/02/17 10:08:32;;;;;;;2.78;0.75;;;;;;;7.80;100.00;98466.25;5046255;28;20029;-60
2022/02/17 10:10:58;;;;;;;2.85;0.55;;;;;;;7.82;100.00;98460.53;5032578;28;20028;-59
2022/02/17 10:13:23;;;;;;;1.00;0.30;;;;;;;7.87;100.00;98468.91;5044760;28;20127;-60
2022/02/17 10:15:57;;;;;;;0.50;0.15;;;;;;;7.88;100.00;98475.78;5066707;28;20122;-60
2022/02/17 10:18:27;;;;;;;1.35;0.28;;;;;;;7.91;100.00;98482.28;5042594;28;20041;-61
2022/02/17 10:21:07;;;;;;;1.25;0.40;;;;;;;7.82;100.00;98514.09;5044153;28;20372;-60
2022/02/17 10:23:40;;;;;;;4.13;0.52;;;;;;;7.76;100.00;98511.03;5039427;28;20053;-61
2022/02/17 10:26:10;;;;;;;0.82;0.17;;;;;;;7.86;100.00;98520.19;5032094;28;20041;-59
2022/02/17 10:28:51;;;;;;;4.43;0.43;;;;;;;7.87;100.00;98533.22;5036732;28;20503;-60
2022/02/17 10:31:21;;;;;;;2.70;0.68;;;;;;;7.90;100.00;98545.06;5022653;28;20025;-60
2022/02/17 10:33:52;;;;;;;1.52;0.30;;;;;;;7.84;100.00;98552.72;5037878;28;20398;-61
2022/02/17 10:36:32;;;;;;;0.00;0.00;;;;;;;7.85;100.00;98570.34;5035371;28;20029;-59
2022/02/17 10:39:15;;;;;;;3.55;0.38;;;;;;;7.86;100.00;98568.41;5034506;28;20026;-59
2022/02/17 10:41:51;;;;;;;1.42;0.52;;;;;;;7.95;100.00;98571.47;5033270;28;20060;-62
2022/02/17 10:44:19;;;;;;;3.53;0.65;;;;;;;7.90;100.00;98572.63;5022440;28;20299;-60
2022/02/17 10:46:45;;;;;;;0.63;0.22;;;;;;;7.97;100.00;98571.84;5041858;28;20029;-63
2022/02/17 10:49:22;;;;;;;2.05;1.23;;;;;;;8.03;100.00;98597.09;5045383;28;20075;-62
2022/02/17 10:51:50;;;;;;;0.88;0.20;;;;;;;8.00;100.00;98587.13;5042874;28;20369;-58
2022/02/17 10:54:21;;;;;;;1.25;0.17;;;;;;;8.04;100.00;98609.31;5034868;28;20049;-60
2022/02/17 10:56:51;;;;;;;0.13;0.13;;;;;;;7.99;100.00;98617.78;5034032;28;20465;-59
2022/02/17 11:02:04;;;;;;;0.73;0.30;;;;;;;7.96;100.00;98643.41;5039966;28;20033;-56
2022/02/17 11:04:30;;;;;;;1.13;0.43;;;;;;;7.89;100.00;98629.28;5026562;28;20025;-63
2022/02/17 11:06:58;;;;;;;7.93;1.13;;;;;;;8.08;100.00;98637.66;5038075;28;20120;-60
2022/02/17 11:09:24;;;;;;;3.80;1.73;;;;;;;8.15;100.00;98642.22;5044806;28;20029;-62
2022/02/17 11:11:51;;;;;;;0.63;0.40;;;;;;;8.27;100.00;98651.78;5028708;28;20083;-60
2022/02/17 11:14:38;;;;;;;3.75;0.52;;;;;;;8.12;100.00;98659.09;5029318;28;20037;-58
2022/02/17 11:17:05;;;;;;;2.47;0.90;;;;;;;8.15;100.00;98652.94;5016012;28;20034;-60
2022/02/17 11:19:31;;;;;;;0.50;0.30;;;;;;;8.14;100.00;98656.78;5019426;28;20440;-61
2022/02/17 11:21:58;;;;;;;3.50;0.40;;;;;;;8.02;100.00;98641.88;5020754;28;20041;-61
2022/02/17 11:24:23;;;;;;;0.25;0.25;;;;;;;7.96;100.00;98664.09;5009044;28;20041;-56
2022/02/17 11:27:02;;;;;;;6.20;0.98;;;;;;;7.95;100.00;98673.28;5020512;28;20084;-62
2022/02/17 11:29:36;;;;;;;0.20;0.20;;;;;;;8.12;100.00;98659.84;5009958;28;20053;-62
2022/02/17 11:32:05;;;;;;;0.30;0.30;;;;;;;8.14;100.00;98678.22;5017096;28;20431;-60
2022/02/17 11:34:58;;;;;;;6.25;0.45;;;;;;;8.14;100.00;98680.91;5026535;28;20041;-61
2022/02/17 11:37:28;;;;;;;0.30;0.30;;;;;;;8.22;100.00;98671.69;5030658;28;20053;-59
2022/02/17 11:39:57;;;;;;;1.13;0.47;;;;;;;8.02;100.00;98694.72;5030620;28;20468;-58
2022/02/17 11:42:38;;;;;;;1.48;0.40;;;;;;;7.93;100.00;98703.16;5032570;28;20037;-60